sensor_id;sensor_type;location;lat;lon;timestamp;temperature;humidity
10419;DHT22;5256;48.728;9.140;2023-06-19T00:00:17;22.50;91.00
10419;DHT22;5256;48.728;9.140;2023-06-19T00:02:43;22.40;91.00
10419;DHT22;5256;48.728;9.140;2023-06-19T00:05:09;22.40;91.10
10419;DHT22;5256;48.728;9.140;2023-06-19T00:07:38;22.40;91.10
10419;DHT22;5256;48.728;9.140;2023-06-19T00:10:05;22.40;91.10
10419;DHT22;5256;48.728;9.140;2023-06-19T00:12:31;22.40;91.10
10419;DHT22;5256;48.728;9.140;2023-06-19T00:14:57;22.40;91.20
10419;DHT22;5256;48.728;9.140;2023-06-19T00:17:23;22.30;91.20
10419;DHT22;5256;48.728;9.140;2023-06-19T00:19:52;22.20;91.50
10419;DHT22;5256;48.728;9.140;2023-06-19T00:22:17;22.10;91.60
10419;DHT22;5256;48.728;9.140;2023-06-19T00:24:43;22.00;91.80
10419;DHT22;5256;48.728;9.140;2023-06-19T00:27:08;21.90;92.00
10419;DHT22;5256;48.728;9.140;2023-06-19T00:29:34;21.80;92.10
10419;DHT22;5256;48.728;9.140;2023-06-19T00:32:00;21.70;92.30
10419;DHT22;5256;48.728;9.140;2023-06-19T00:34:25;21.60;92.50
10419;DHT22;5256;48.728;9.140;2023-06-19T00:36:51;21.50;92.80
10419;DHT22;5256;48.728;9.140;2023-06-19T00:39:22;21.40;92.90
10419;DHT22;5256;48.728;9.140;2023-06-19T00:41:47;21.40;93.20
10419;DHT22;5256;48.728;9.140;2023-06-19T00:44:14;21.30;93.40
10419;DHT22;5256;48.728;9.140;2023-06-19T00:46:41;21.20;93.60
10419;DHT22;5256;48.728;9.140;2023-06-19T00:49:10;21.20;94.00
10419;DHT22;5256;48.728;9.140;2023-06-19T00:51:35;21.00;94.10
10419;DHT22;5256;48.728;9.140;2023-06-19T00:54:01;21.00;94.40
10419;DHT22;5256;48.728;9.140;2023-06-19T00:56:27;20.90;94.70
10419;DHT22;5256;48.728;9.140;2023-06-19T00:58:53;20.90;95.00
10419;DHT22;5256;48.728;9.140;2023-06-19T01:01:20;20.90;95.30
10419;DHT22;5256;48.728;9.140;2023-06-19T01:03:46;20.80;95.60
10419;DHT22;5256;48.728;9.140;2023-06-19T01:06:17;20.80;95.80
10419;DHT22;5256;48.728;9.140;2023-06-19T01:08:53;20.80;96.10
10419;DHT22;5256;48.728;9.140;2023-06-19T01:11:24;20.80;96.20
10419;DHT22;5256;48.728;9.140;2023-06-19T01:14:00;20.90;96.40
10419;DHT22;5256;48.728;9.140;2023-06-19T01:16:28;21.10;96.40
10419;DHT22;5256;48.728;9.140;2023-06-19T01:18:54;21.50;94.90
10419;DHT22;5256;48.728;9.140;2023-06-19T01:21:20;21.90;93.60
10419;DHT22;5256;48.728;9.140;2023-06-19T01:23:46;22.20;93.10
10419;DHT22;5256;48.728;9.140;2023-06-19T01:26:12;22.30;92.90
10419;DHT22;5256;48.728;9.140;2023-06-19T01:28:40;22.40;92.80
10419;DHT22;5256;48.728;9.140;2023-06-19T01:31:20;22.40;93.00
10419;DHT22;5256;48.728;9.140;2023-06-19T01:33:47;22.40;93.30
10419;DHT22;5256;48.728;9.140;2023-06-19T01:36:15;22.40;93.50
10419;DHT22;5256;48.728;9.140;2023-06-19T01:38:44;22.30;93.70
10419;DHT22;5256;48.728;9.140;2023-06-19T01:41:10;22.20;93.90
10419;DHT22;5256;48.728;9.140;2023-06-19T01:43:37;22.10;94.10
10419;DHT22;5256;48.728;9.140;2023-06-19T01:46:03;22.10;94.30
10419;DHT22;5256;48.728;9.140;2023-06-19T01:48:29;22.10;94.40
10419;DHT22;5256;48.728;9.140;2023-06-19T01:50:55;22.00;94.50
10419;DHT22;5256;48.728;9.140;2023-06-19T01:53:20;21.90;94.60
10419;DHT22;5256;48.728;9.140;2023-06-19T01:55:46;21.90;94.70
10419;DHT22;5256;48.728;9.140;2023-06-19T01:58:11;21.80;95.00
10419;DHT22;5256;48.728;9.140;2023-06-19T02:00:37;21.80;95.40
10419;DHT22;5256;48.728;9.140;2023-06-19T02:03:03;21.70;95.70
10419;DHT22;5256;48.728;9.140;2023-06-19T02:05:32;21.70;96.00
10419;DHT22;5256;48.728;9.140;2023-06-19T02:07:58;21.70;96.20
10419;DHT22;5256;48.728;9.140;2023-06-19T02:10:23;21.70;96.60
10419;DHT22;5256;48.728;9.140;2023-06-19T02:12:49;21.60;96.90
10419;DHT22;5256;48.728;9.140;2023-06-19T02:15:14;21.60;97.10
10419;DHT22;5256;48.728;9.140;2023-06-19T02:17:40;21.60;97.40
10419;DHT22;5256;48.728;9.140;2023-06-19T02:20:08;21.60;97.60
10419;DHT22;5256;48.728;9.140;2023-06-19T02:22:35;21.50;97.90
10419;DHT22;5256;48.728;9.140;2023-06-19T02:25:00;21.50;98.20
10419;DHT22;5256;48.728;9.140;2023-06-19T02:27:26;21.50;98.40
10419;DHT22;5256;48.728;9.140;2023-06-19T02:29:51;21.50;98.60
10419;DHT22;5256;48.728;9.140;2023-06-19T02:32:17;21.50;98.70
10419;DHT22;5256;48.728;9.140;2023-06-19T02:34:43;21.40;98.80
10419;DHT22;5256;48.728;9.140;2023-06-19T02:37:08;21.30;99.10
10419;DHT22;5256;48.728;9.140;2023-06-19T02:39:34;21.30;99.30
10419;DHT22;5256;48.728;9.140;2023-06-19T02:41:59;21.30;99.60
10419;DHT22;5256;48.728;9.140;2023-06-19T02:44:25;21.30;99.60
10419;DHT22;5256;48.728;9.140;2023-06-19T02:46:50;21.40;99.80
10419;DHT22;5256;48.728;9.140;2023-06-19T02:49:16;21.40;99.90
10419;DHT22;5256;48.728;9.140;2023-06-19T02:51:41;21.30;99.90
10419;DHT22;5256;48.728;9.140;2023-06-19T02:54:07;21.30;99.90
10419;DHT22;5256;48.728;9.140;2023-06-19T02:56:32;21.30;99.90
10419;DHT22;5256;48.728;9.140;2023-06-19T02:58:58;21.20;99.90
10419;DHT22;5256;48.728;9.140;2023-06-19T03:01:24;21.30;99.90
10419;DHT22;5256;48.728;9.140;2023-06-19T03:03:49;21.20;99.90
10419;DHT22;5256;48.728;9.140;2023-06-19T03:06:15;21.20;99.90
10419;DHT22;5256;48.728;9.140;2023-06-19T03:08:40;21.20;99.90
10419;DHT22;5256;48.728;9.140;2023-06-19T03:11:06;21.20;99.90
10419;DHT22;5256;48.728;9.140;2023-06-19T03:13:46;21.10;99.90
10419;DHT22;5256;48.728;9.140;2023-06-19T03:16:12;21.00;99.90
10419;DHT22;5256;48.728;9.140;2023-06-19T03:18:38;21.00;99.90
10419;DHT22;5256;48.728;9.140;2023-06-19T03:21:03;20.90;99.90
10419;DHT22;5256;48.728;9.140;2023-06-19T03:23:29;20.90;99.90
10419;DHT22;5256;48.728;9.140;2023-06-19T03:25:55;20.80;99.90
10419;DHT22;5256;48.728;9.140;2023-06-19T03:28:21;20.90;99.90
10419;DHT22;5256;48.728;9.140;2023-06-19T03:30:46;20.80;99.90
10419;DHT22;5256;48.728;9.140;2023-06-19T03:33:12;20.80;99.90
10419;DHT22;5256;48.728;9.140;2023-06-19T03:35:37;20.70;99.90
10419;DHT22;5256;48.728;9.140;2023-06-19T03:38:03;20.70;99.90
10419;DHT22;5256;48.728;9.140;2023-06-19T03:40:28;20.70;99.90
10419;DHT22;5256;48.728;9.140;2023-06-19T03:42:54;20.70;99.90
10419;DHT22;5256;48.728;9.140;2023-06-19T03:45:20;20.60;99.90
10419;DHT22;5256;48.728;9.140;2023-06-19T03:47:45;20.60;99.90
10419;DHT22;5256;48.728;9.140;2023-06-19T03:50:11;20.70;99.90
10419;DHT22;5256;48.728;9.140;2023-06-19T03:52:36;20.70;99.90
10419;DHT22;5256;48.728;9.140;2023-06-19T03:55:03;20.50;99.90
10419;DHT22;5256;48.728;9.140;2023-06-19T03:57:28;20.50;99.90
10419;DHT22;5256;48.728;9.140;2023-06-19T03:59:54;20.50;99.90
10419;DHT22;5256;48.728;9.140;2023-06-19T04:02:20;20.50;99.90
10419;DHT22;5256;48.728;9.140;2023-06-19T04:04:45;20.50;99.90
10419;DHT22;5256;48.728;9.140;2023-06-19T04:07:11;20.40;99.90
10419;DHT22;5256;48.728;9.140;2023-06-19T04:09:36;20.30;99.90
10419;DHT22;5256;48.728;9.140;2023-06-19T04:12:02;20.10;99.90
10419;DHT22;5256;48.728;9.140;2023-06-19T04:14:27;20.00;99.90
10419;DHT22;5256;48.728;9.140;2023-06-19T04:16:53;19.90;99.90
10419;DHT22;5256;48.728;9.140;2023-06-19T04:19:18;19.90;99.90
10419;DHT22;5256;48.728;9.140;2023-06-19T04:21:44;19.80;99.90
10419;DHT22;5256;48.728;9.140;2023-06-19T04:24:09;19.80;99.90
10419;DHT22;5256;48.728;9.140;2023-06-19T04:26:35;19.70;99.90
10419;DHT22;5256;48.728;9.140;2023-06-19T04:29:02;19.70;99.90
10419;DHT22;5256;48.728;9.140;2023-06-19T04:31:28;19.80;99.90
10419;DHT22;5256;48.728;9.140;2023-06-19T04:33:55;19.80;99.90
10419;DHT22;5256;48.728;9.140;2023-06-19T04:36:22;19.80;99.90
10419;DHT22;5256;48.728;9.140;2023-06-19T04:38:48;19.80;99.90
10419;DHT22;5256;48.728;9.140;2023-06-19T04:41:16;19.90;99.90
10419;DHT22;5256;48.728;9.140;2023-06-19T04:43:42;19.90;99.90
10419;DHT22;5256;48.728;9.140;2023-06-19T04:46:08;20.00;99.90
10419;DHT22;5256;48.728;9.140;2023-06-19T04:48:33;20.10;99.90
10419;DHT22;5256;48.728;9.140;2023-06-19T04:51:01;20.30;99.90
10419;DHT22;5256;48.728;9.140;2023-06-19T04:53:27;20.40;99.90
10419;DHT22;5256;48.728;9.140;2023-06-19T04:55:53;20.50;99.90
10419;DHT22;5256;48.728;9.140;2023-06-19T04:58:21;20.60;99.90
10419;DHT22;5256;48.728;9.140;2023-06-19T05:00:47;20.70;99.90
10419;DHT22;5256;48.728;9.140;2023-06-19T05:03:17;20.80;99.90
10419;DHT22;5256;48.728;9.140;2023-06-19T05:05:43;21.00;99.90
10419;DHT22;5256;48.728;9.140;2023-06-19T05:08:09;21.30;99.90
10419;DHT22;5256;48.728;9.140;2023-06-19T05:10:35;21.50;99.90
10419;DHT22;5256;48.728;9.140;2023-06-19T05:13:01;21.40;99.90
10419;DHT22;5256;48.728;9.140;2023-06-19T05:15:27;21.10;99.90
10419;DHT22;5256;48.728;9.140;2023-06-19T05:17:53;20.90;99.90
10419;DHT22;5256;48.728;9.140;2023-06-19T05:20:19;20.80;99.90
10419;DHT22;5256;48.728;9.140;2023-06-19T05:22:45;20.70;99.90
10419;DHT22;5256;48.728;9.140;2023-06-19T05:25:10;20.70;99.90
10419;DHT22;5256;48.728;9.140;2023-06-19T05:27:36;20.70;99.90
10419;DHT22;5256;48.728;9.140;2023-06-19T05:30:02;20.80;99.90
10419;DHT22;5256;48.728;9.140;2023-06-19T05:32:29;20.80;99.90
10419;DHT22;5256;48.728;9.140;2023-06-19T05:34:54;20.80;99.90
10419;DHT22;5256;48.728;9.140;2023-06-19T05:37:20;20.90;99.90
10419;DHT22;5256;48.728;9.140;2023-06-19T05:39:47;21.00;99.90
10419;DHT22;5256;48.728;9.140;2023-06-19T05:42:13;21.20;99.90
10419;DHT22;5256;48.728;9.140;2023-06-19T05:44:38;21.50;99.90
10419;DHT22;5256;48.728;9.140;2023-06-19T05:47:05;21.80;99.90
10419;DHT22;5256;48.728;9.140;2023-06-19T05:49:31;22.30;99.90
10419;DHT22;5256;48.728;9.140;2023-06-19T05:51:56;22.80;99.90
10419;DHT22;5256;48.728;9.140;2023-06-19T05:54:25;23.50;99.90
10419;DHT22;5256;48.728;9.140;2023-06-19T05:56:51;24.10;99.90
10419;DHT22;5256;48.728;9.140;2023-06-19T05:59:16;24.70;99.90
10419;DHT22;5256;48.728;9.140;2023-06-19T06:01:42;25.10;99.90
10419;DHT22;5256;48.728;9.140;2023-06-19T06:04:07;25.00;99.90
10419;DHT22;5256;48.728;9.140;2023-06-19T06:06:33;24.70;99.90
10419;DHT22;5256;48.728;9.140;2023-06-19T06:09:00;24.40;99.90
10419;DHT22;5256;48.728;9.140;2023-06-19T06:11:25;24.30;99.90
10419;DHT22;5256;48.728;9.140;2023-06-19T06:13:51;24.10;99.90
10419;DHT22;5256;48.728;9.140;2023-06-19T06:16:17;23.90;99.90
10419;DHT22;5256;48.728;9.140;2023-06-19T06:18:42;23.80;99.90
10419;DHT22;5256;48.728;9.140;2023-06-19T06:21:08;23.70;99.90
10419;DHT22;5256;48.728;9.140;2023-06-19T06:23:33;23.80;99.90
10419;DHT22;5256;48.728;9.140;2023-06-19T06:25:59;24.00;99.90
10419;DHT22;5256;48.728;9.140;2023-06-19T06:28:28;24.10;99.90
10419;DHT22;5256;48.728;9.140;2023-06-19T06:30:54;24.30;99.90
10419;DHT22;5256;48.728;9.140;2023-06-19T06:33:20;24.70;99.90
10419;DHT22;5256;48.728;9.140;2023-06-19T06:35:46;25.10;99.90
10419;DHT22;5256;48.728;9.140;2023-06-19T06:38:11;25.50;99.90
10419;DHT22;5256;48.728;9.140;2023-06-19T06:40:37;25.50;99.90
10419;DHT22;5256;48.728;9.140;2023-06-19T06:43:02;25.10;99.90
10419;DHT22;5256;48.728;9.140;2023-06-19T06:45:28;24.90;99.90
10419;DHT22;5256;48.728;9.140;2023-06-19T06:47:53;25.00;99.90
10419;DHT22;5256;48.728;9.140;2023-06-19T06:50:19;25.30;99.90
10419;DHT22;5256;48.728;9.140;2023-06-19T06:52:44;25.40;99.90
10419;DHT22;5256;48.728;9.140;2023-06-19T06:55:10;25.40;99.90
10419;DHT22;5256;48.728;9.140;2023-06-19T06:57:35;25.10;99.90
10419;DHT22;5256;48.728;9.140;2023-06-19T07:00:02;24.90;99.90
10419;DHT22;5256;48.728;9.140;2023-06-19T07:02:29;24.80;99.90
10419;DHT22;5256;48.728;9.140;2023-06-19T07:04:55;24.70;99.90
10419;DHT22;5256;48.728;9.140;2023-06-19T07:07:20;24.90;99.90
10419;DHT22;5256;48.728;9.140;2023-06-19T07:09:46;25.10;99.90
10419;DHT22;5256;48.728;9.140;2023-06-19T07:12:12;25.60;99.90
10419;DHT22;5256;48.728;9.140;2023-06-19T07:14:38;26.30;99.90
10419;DHT22;5256;48.728;9.140;2023-06-19T07:17:03;27.20;99.80
10419;DHT22;5256;48.728;9.140;2023-06-19T07:19:35;27.50;99.40
10419;DHT22;5256;48.728;9.140;2023-06-19T07:22:01;27.30;99.00
10419;DHT22;5256;48.728;9.140;2023-06-19T07:24:26;26.80;99.40
10419;DHT22;5256;48.728;9.140;2023-06-19T07:26:52;27.00;99.00
10419;DHT22;5256;48.728;9.140;2023-06-19T07:29:18;27.60;98.90
10419;DHT22;5256;48.728;9.140;2023-06-19T07:31:44;28.40;97.80
10419;DHT22;5256;48.728;9.140;2023-06-19T07:34:09;28.80;97.50
10419;DHT22;5256;48.728;9.140;2023-06-19T07:36:35;29.30;96.70
10419;DHT22;5256;48.728;9.140;2023-06-19T07:39:00;29.50;95.70
10419;DHT22;5256;48.728;9.140;2023-06-19T07:41:26;29.20;95.90
10419;DHT22;5256;48.728;9.140;2023-06-19T07:43:52;29.60;95.60
10419;DHT22;5256;48.728;9.140;2023-06-19T07:46:17;29.40;95.40
10419;DHT22;5256;48.728;9.140;2023-06-19T07:48:43;29.10;95.50
10419;DHT22;5256;48.728;9.140;2023-06-19T07:51:12;29.40;95.90
10419;DHT22;5256;48.728;9.140;2023-06-19T07:53:37;30.00;95.40
10419;DHT22;5256;48.728;9.140;2023-06-19T07:56:05;30.50;94.60
10419;DHT22;5256;48.728;9.140;2023-06-19T07:58:30;30.10;94.20
10419;DHT22;5256;48.728;9.140;2023-06-19T08:00:56;29.00;94.60
10419;DHT22;5256;48.728;9.140;2023-06-19T08:03:22;28.20;95.30
10419;DHT22;5256;48.728;9.140;2023-06-19T08:05:49;27.70;96.00
10419;DHT22;5256;48.728;9.140;2023-06-19T08:08:15;27.50;96.30
10419;DHT22;5256;48.728;9.140;2023-06-19T08:10:40;27.10;96.50
10419;DHT22;5256;48.728;9.140;2023-06-19T08:13:06;26.80;96.90
10419;DHT22;5256;48.728;9.140;2023-06-19T08:15:32;26.10;97.20
10419;DHT22;5256;48.728;9.140;2023-06-19T08:17:57;25.60;97.70
10419;DHT22;5256;48.728;9.140;2023-06-19T08:20:23;25.30;98.30
10419;DHT22;5256;48.728;9.140;2023-06-19T08:22:49;25.30;98.60
10419;DHT22;5256;48.728;9.140;2023-06-19T08:25:14;25.30;98.90
10419;DHT22;5256;48.728;9.140;2023-06-19T08:27:40;25.40;98.90
10419;DHT22;5256;48.728;9.140;2023-06-19T08:30:06;25.50;98.90
10419;DHT22;5256;48.728;9.140;2023-06-19T08:32:32;25.70;98.80
10419;DHT22;5256;48.728;9.140;2023-06-19T08:34:59;26.10;98.80
10419;DHT22;5256;48.728;9.140;2023-06-19T08:37:25;26.40;98.50
10419;DHT22;5256;48.728;9.140;2023-06-19T08:39:50;26.70;98.20
10419;DHT22;5256;48.728;9.140;2023-06-19T08:42:16;27.50;98.00
10419;DHT22;5256;48.728;9.140;2023-06-19T08:44:42;28.40;97.00
10419;DHT22;5256;48.728;9.140;2023-06-19T08:47:07;29.00;96.00
10419;DHT22;5256;48.728;9.140;2023-06-19T08:49:34;29.30;95.80
10419;DHT22;5256;48.728;9.140;2023-06-19T08:52:03;29.60;95.10
10419;DHT22;5256;48.728;9.140;2023-06-19T08:54:30;29.50;94.70
10419;DHT22;5256;48.728;9.140;2023-06-19T08:56:55;29.90;94.50
10419;DHT22;5256;48.728;9.140;2023-06-19T08:59:21;29.90;93.50
10419;DHT22;5256;48.728;9.140;2023-06-19T09:01:48;29.50;93.30
10419;DHT22;5256;48.728;9.140;2023-06-19T09:04:18;29.30;93.40
10419;DHT22;5256;48.728;9.140;2023-06-19T09:06:49;28.90;93.30
10419;DHT22;5256;48.728;9.140;2023-06-19T09:09:16;28.40;94.20
10419;DHT22;5256;48.728;9.140;2023-06-19T09:11:42;28.50;94.30
10419;DHT22;5256;48.728;9.140;2023-06-19T09:14:11;29.10;93.50
10419;DHT22;5256;48.728;9.140;2023-06-19T09:16:41;29.80;93.00
10419;DHT22;5256;48.728;9.140;2023-06-19T09:19:07;30.60;92.70
10419;DHT22;5256;48.728;9.140;2023-06-19T09:21:36;30.50;92.20
10419;DHT22;5256;48.728;9.140;2023-06-19T09:24:04;29.70;92.20
10419;DHT22;5256;48.728;9.140;2023-06-19T09:26:30;29.00;92.70
10419;DHT22;5256;48.728;9.140;2023-06-19T09:28:55;28.30;93.10
10419;DHT22;5256;48.728;9.140;2023-06-19T09:31:31;27.80;93.30
10419;DHT22;5256;48.728;9.140;2023-06-19T09:33:58;27.60;94.00
10419;DHT22;5256;48.728;9.140;2023-06-19T09:36:25;27.60;94.50
10419;DHT22;5256;48.728;9.140;2023-06-19T09:38:52;27.80;94.30
10419;DHT22;5256;48.728;9.140;2023-06-19T09:41:19;27.70;94.10
10419;DHT22;5256;48.728;9.140;2023-06-19T09:43:47;27.80;94.70
10419;DHT22;5256;48.728;9.140;2023-06-19T09:46:14;27.60;94.70
10419;DHT22;5256;48.728;9.140;2023-06-19T09:48:43;27.80;95.10
10419;DHT22;5256;48.728;9.140;2023-06-19T09:51:19;28.10;95.00
10419;DHT22;5256;48.728;9.140;2023-06-19T09:53:46;29.10;94.70
10419;DHT22;5256;48.728;9.140;2023-06-19T09:56:13;30.30;93.70
10419;DHT22;5256;48.728;9.140;2023-06-19T09:58:39;31.10;92.70
10419;DHT22;5256;48.728;9.140;2023-06-19T10:01:06;32.00;92.20
10419;DHT22;5256;48.728;9.140;2023-06-19T10:03:33;32.80;91.40
10419;DHT22;5256;48.728;9.140;2023-06-19T10:06:00;33.30;90.50
10419;DHT22;5256;48.728;9.140;2023-06-19T10:08:31;33.50;89.20
10419;DHT22;5256;48.728;9.140;2023-06-19T10:10:57;33.70;89.50
10419;DHT22;5256;48.728;9.140;2023-06-19T10:13:31;34.20;88.80
10419;DHT22;5256;48.728;9.140;2023-06-19T10:15:57;34.00;86.90
10419;DHT22;5256;48.728;9.140;2023-06-19T10:18:22;34.00;86.30
10419;DHT22;5256;48.728;9.140;2023-06-19T10:20:50;34.10;86.40
10419;DHT22;5256;48.728;9.140;2023-06-19T10:23:18;33.40;87.10
10419;DHT22;5256;48.728;9.140;2023-06-19T10:26:05;32.30;88.30
10419;DHT22;5256;48.728;9.140;2023-06-19T10:28:32;31.90;89.00
10419;DHT22;5256;48.728;9.140;2023-06-19T10:33:32;31.50;90.00
10419;DHT22;5256;48.728;9.140;2023-06-19T10:36:00;31.30;90.00
10419;DHT22;5256;48.728;9.140;2023-06-19T10:38:26;31.00;90.20
10419;DHT22;5256;48.728;9.140;2023-06-19T10:40:52;30.80;90.10
10419;DHT22;5256;48.728;9.140;2023-06-19T10:43:21;30.90;90.20
10419;DHT22;5256;48.728;9.140;2023-06-19T10:45:53;31.00;90.10
10419;DHT22;5256;48.728;9.140;2023-06-19T10:48:20;31.50;90.10
10419;DHT22;5256;48.728;9.140;2023-06-19T10:50:47;31.60;90.30
10419;DHT22;5256;48.728;9.140;2023-06-19T10:53:23;31.50;90.40
10419;DHT22;5256;48.728;9.140;2023-06-19T10:55:57;31.00;90.90
10419;DHT22;5256;48.728;9.140;2023-06-19T10:58:24;30.70;91.10
10419;DHT22;5256;48.728;9.140;2023-06-19T11:00:49;30.50;91.50
10419;DHT22;5256;48.728;9.140;2023-06-19T11:03:15;30.90;91.70
10419;DHT22;5256;48.728;9.140;2023-06-19T11:05:43;30.80;91.80
10419;DHT22;5256;48.728;9.140;2023-06-19T11:08:09;30.80;92.30
10419;DHT22;5256;48.728;9.140;2023-06-19T11:10:35;30.70;91.90
10419;DHT22;5256;48.728;9.140;2023-06-19T11:13:00;30.80;91.70
10419;DHT22;5256;48.728;9.140;2023-06-19T11:15:33;30.70;92.10
10419;DHT22;5256;48.728;9.140;2023-06-19T11:18:01;30.70;92.00
10419;DHT22;5256;48.728;9.140;2023-06-19T11:20:28;31.00;91.60
10419;DHT22;5256;48.728;9.140;2023-06-19T11:22:58;31.10;91.40
10419;DHT22;5256;48.728;9.140;2023-06-19T11:25:34;31.10;91.30
10419;DHT22;5256;48.728;9.140;2023-06-19T11:28:00;31.50;91.10
10419;DHT22;5256;48.728;9.140;2023-06-19T11:30:33;32.20;90.80
10419;DHT22;5256;48.728;9.140;2023-06-19T11:32:59;32.00;90.60
10419;DHT22;5256;48.728;9.140;2023-06-19T11:35:24;31.80;90.80
10419;DHT22;5256;48.728;9.140;2023-06-19T11:37:51;31.60;91.00
10419;DHT22;5256;48.728;9.140;2023-06-19T11:40:17;31.30;91.40
10419;DHT22;5256;48.728;9.140;2023-06-19T11:42:53;31.00;91.30
10419;DHT22;5256;48.728;9.140;2023-06-19T11:45:18;30.80;91.30
10419;DHT22;5256;48.728;9.140;2023-06-19T11:47:45;31.10;91.60
10419;DHT22;5256;48.728;9.140;2023-06-19T11:50:13;31.20;90.90
10419;DHT22;5256;48.728;9.140;2023-06-19T11:52:39;30.80;91.20
10419;DHT22;5256;48.728;9.140;2023-06-19T11:55:05;30.30;91.30
10419;DHT22;5256;48.728;9.140;2023-06-19T11:57:31;30.10;91.90
10419;DHT22;5256;48.728;9.140;2023-06-19T11:59:58;30.20;91.80
10419;DHT22;5256;48.728;9.140;2023-06-19T12:02:23;29.90;91.80
10419;DHT22;5256;48.728;9.140;2023-06-19T12:04:49;29.90;91.90
10419;DHT22;5256;48.728;9.140;2023-06-19T12:07:15;29.90;91.70
10419;DHT22;5256;48.728;9.140;2023-06-19T12:09:41;30.10;91.80
10419;DHT22;5256;48.728;9.140;2023-06-19T12:12:08;30.20;91.80
10419;DHT22;5256;48.728;9.140;2023-06-19T12:14:34;30.10;91.40
10419;DHT22;5256;48.728;9.140;2023-06-19T12:17:00;30.20;91.50
10419;DHT22;5256;48.728;9.140;2023-06-19T12:19:26;30.60;91.10
10419;DHT22;5256;48.728;9.140;2023-06-19T12:21:53;30.90;91.00
10419;DHT22;5256;48.728;9.140;2023-06-19T12:24:18;31.00;90.90
10419;DHT22;5256;48.728;9.140;2023-06-19T12:26:44;31.30;90.70
10419;DHT22;5256;48.728;9.140;2023-06-19T12:29:10;31.40;90.70
10419;DHT22;5256;48.728;9.140;2023-06-19T12:31:36;31.10;90.60
10419;DHT22;5256;48.728;9.140;2023-06-19T12:34:02;31.00;90.70
10419;DHT22;5256;48.728;9.140;2023-06-19T12:36:28;31.20;90.40
10419;DHT22;5256;48.728;9.140;2023-06-19T12:38:56;31.40;90.80
10419;DHT22;5256;48.728;9.140;2023-06-19T12:41:22;31.70;90.50
10419;DHT22;5256;48.728;9.140;2023-06-19T12:43:47;32.00;90.40
10419;DHT22;5256;48.728;9.140;2023-06-19T12:46:13;31.60;90.10
10419;DHT22;5256;48.728;9.140;2023-06-19T12:48:40;31.60;90.10
10419;DHT22;5256;48.728;9.140;2023-06-19T12:51:06;31.20;90.00
10419;DHT22;5256;48.728;9.140;2023-06-19T12:53:31;30.80;90.30
10419;DHT22;5256;48.728;9.140;2023-06-19T12:55:58;30.50;90.80
10419;DHT22;5256;48.728;9.140;2023-06-19T12:58:23;30.80;90.50
10419;DHT22;5256;48.728;9.140;2023-06-19T13:00:49;30.70;90.20
10419;DHT22;5256;48.728;9.140;2023-06-19T13:03:14;30.80;90.30
10419;DHT22;5256;48.728;9.140;2023-06-19T13:05:40;31.10;90.00
10419;DHT22;5256;48.728;9.140;2023-06-19T13:08:06;31.20;90.10
10419;DHT22;5256;48.728;9.140;2023-06-19T13:10:31;30.90;90.00
10419;DHT22;5256;48.728;9.140;2023-06-19T13:12:57;30.70;89.90
10419;DHT22;5256;48.728;9.140;2023-06-19T13:15:25;30.60;90.00
10419;DHT22;5256;48.728;9.140;2023-06-19T13:17:52;30.50;90.10
10419;DHT22;5256;48.728;9.140;2023-06-19T13:20:18;30.50;90.00
10419;DHT22;5256;48.728;9.140;2023-06-19T13:22:43;30.30;90.40
10419;DHT22;5256;48.728;9.140;2023-06-19T13:25:09;30.30;90.40
10419;DHT22;5256;48.728;9.140;2023-06-19T13:27:35;30.20;90.50
10419;DHT22;5256;48.728;9.140;2023-06-19T13:30:02;30.30;91.00
10419;DHT22;5256;48.728;9.140;2023-06-19T13:32:28;30.40;91.10
10419;DHT22;5256;48.728;9.140;2023-06-19T13:34:53;30.40;91.20
10419;DHT22;5256;48.728;9.140;2023-06-19T13:37:19;30.50;91.00
10419;DHT22;5256;48.728;9.140;2023-06-19T13:39:45;30.70;90.70
10419;DHT22;5256;48.728;9.140;2023-06-19T13:42:11;30.80;90.60
10419;DHT22;5256;48.728;9.140;2023-06-19T13:44:38;30.80;91.10
10419;DHT22;5256;48.728;9.140;2023-06-19T13:47:04;30.70;90.50
10419;DHT22;5256;48.728;9.140;2023-06-19T13:49:30;30.20;90.00
10419;DHT22;5256;48.728;9.140;2023-06-19T13:51:56;30.30;90.10
10419;DHT22;5256;48.728;9.140;2023-06-19T13:54:21;30.60;90.00
10419;DHT22;5256;48.728;9.140;2023-06-19T13:56:47;30.80;89.40
10419;DHT22;5256;48.728;9.140;2023-06-19T13:59:14;31.10;89.90
10419;DHT22;5256;48.728;9.140;2023-06-19T14:01:40;31.50;89.10
10419;DHT22;5256;48.728;9.140;2023-06-19T14:04:07;31.80;88.70
10419;DHT22;5256;48.728;9.140;2023-06-19T14:06:34;32.20;88.20
10419;DHT22;5256;48.728;9.140;2023-06-19T14:08:59;32.00;86.90
10419;DHT22;5256;48.728;9.140;2023-06-19T14:11:25;31.90;86.50
10419;DHT22;5256;48.728;9.140;2023-06-19T14:13:50;32.00;85.80
10419;DHT22;5256;48.728;9.140;2023-06-19T14:16:16;32.00;86.00
10419;DHT22;5256;48.728;9.140;2023-06-19T14:18:42;32.80;85.20
10419;DHT22;5256;48.728;9.140;2023-06-19T14:21:07;32.90;84.60
10419;DHT22;5256;48.728;9.140;2023-06-19T14:23:33;33.50;84.60
10419;DHT22;5256;48.728;9.140;2023-06-19T14:26:04;34.00;82.80
10419;DHT22;5256;48.728;9.140;2023-06-19T14:28:29;34.30;81.90
10419;DHT22;5256;48.728;9.140;2023-06-19T14:30:55;33.90;82.10
10419;DHT22;5256;48.728;9.140;2023-06-19T14:33:20;34.30;82.10
10419;DHT22;5256;48.728;9.140;2023-06-19T14:35:46;34.10;81.10
10419;DHT22;5256;48.728;9.140;2023-06-19T14:38:13;34.40;81.10
10419;DHT22;5256;48.728;9.140;2023-06-19T14:40:39;34.90;80.40
10419;DHT22;5256;48.728;9.140;2023-06-19T14:43:05;35.00;80.90
10419;DHT22;5256;48.728;9.140;2023-06-19T14:45:30;34.20;81.40
10419;DHT22;5256;48.728;9.140;2023-06-19T14:47:56;34.10;81.50
10419;DHT22;5256;48.728;9.140;2023-06-19T14:50:22;33.80;81.20
10419;DHT22;5256;48.728;9.140;2023-06-19T14:52:47;33.60;81.70
10419;DHT22;5256;48.728;9.140;2023-06-19T14:55:13;33.20;82.20
10419;DHT22;5256;48.728;9.140;2023-06-19T14:57:39;32.60;83.10
10419;DHT22;5256;48.728;9.140;2023-06-19T15:00:05;32.30;83.80
10419;DHT22;5256;48.728;9.140;2023-06-19T15:02:31;31.80;83.70
10419;DHT22;5256;48.728;9.140;2023-06-19T15:04:56;31.90;83.40
10419;DHT22;5256;48.728;9.140;2023-06-19T15:07:22;32.60;83.10
10419;DHT22;5256;48.728;9.140;2023-06-19T15:09:47;33.20;82.50
10419;DHT22;5256;48.728;9.140;2023-06-19T15:12:13;33.20;82.00
10419;DHT22;5256;48.728;9.140;2023-06-19T15:14:39;33.40;82.00
10419;DHT22;5256;48.728;9.140;2023-06-19T15:17:06;34.10;81.80
10419;DHT22;5256;48.728;9.140;2023-06-19T15:19:32;34.10;80.10
10419;DHT22;5256;48.728;9.140;2023-06-19T15:21:57;34.10;80.10
10419;DHT22;5256;48.728;9.140;2023-06-19T15:24:23;34.10;79.50
10419;DHT22;5256;48.728;9.140;2023-06-19T15:26:49;33.60;80.20
10419;DHT22;5256;48.728;9.140;2023-06-19T15:29:14;33.30;80.10
10419;DHT22;5256;48.728;9.140;2023-06-19T15:31:40;33.20;80.30
10419;DHT22;5256;48.728;9.140;2023-06-19T15:34:05;33.00;80.00
10419;DHT22;5256;48.728;9.140;2023-06-19T15:36:31;32.80;80.20
10419;DHT22;5256;48.728;9.140;2023-06-19T15:38:56;32.60;81.00
10419;DHT22;5256;48.728;9.140;2023-06-19T15:41:22;32.40;81.20